Denholm, Canada
Current Conditions -  °F | °C
As of 1:00 PM on Friday 24 Oct 2014 (Local Time) from CYQW Reporting Station
Clear Clear  
Wind Chill: 50°   Ceiling: Unl
Heat Index: 50°   Visibility: 9mi
Dew Point: 30°   Wind: 23mph
Humidity: 47%   Direction: 280°W
Pressure: 29.8"   Gusts: 32mph
Location:  52.65°N, 108.02°W
Report Text: CYQW 241900Z AUTO 28020G28KT 9SM CLR 10/M01 A2980 RMK SLP107
Loading
Personal Weather Stations






























Interactive Weather Map
Tropical Storm Tracking
New forecast layout! Learn more

10-Day Weather Forecast

Advertisements
Track Severe Weather on mobile